createdAt,value
2022-09-10T00:02:01.840Z,16.42
2022-09-10T00:04:28.774Z,16.27
2022-09-10T00:06:56.373Z,16.27
2022-09-10T00:09:23.126Z,16.21
2022-09-10T00:11:49.880Z,16.16
2022-09-10T00:14:19.980Z,16.10
2022-09-10T00:16:46.823Z,16.09
2022-09-10T00:19:14.659Z,16.13
2022-09-10T00:21:41.235Z,16.03
2022-09-10T00:24:08.449Z,16.10
2022-09-10T00:26:39.950Z,16.15
2022-09-10T00:29:09.455Z,16.47
2022-09-10T00:31:37.273Z,16.50
2022-09-10T00:34:05.791Z,16.38
2022-09-10T00:36:36.178Z,16.32
2022-09-10T00:39:10.265Z,16.10
2022-09-10T00:41:39.869Z,16.16
2022-09-10T00:44:37.556Z,16.39
2022-09-10T00:47:06.319Z,16.31
2022-09-10T00:49:38.733Z,16.42
2022-09-10T00:52:07.694Z,16.13
2022-09-10T00:54:36.095Z,16.17
2022-09-10T00:57:13.106Z,16.11
2022-09-10T00:59:47.808Z,16.09
2022-09-10T01:02:14.915Z,16.22
2022-09-10T01:04:43.060Z,16.39
2022-09-10T01:07:11.352Z,16.20
2022-09-10T01:09:40.238Z,16.30
2022-09-10T01:12:27.113Z,16.07
2022-09-10T01:15:08.530Z,16.13
2022-09-10T01:17:45.096Z,16.40
2022-09-10T01:20:40.980Z,16.12
2022-09-10T01:23:41.542Z,16.28
2022-09-10T01:26:31.942Z,16.39
2022-09-10T01:29:16.241Z,16.19
2022-09-10T01:31:55.545Z,16.40
2022-09-10T01:34:32.746Z,16.31
2022-09-10T01:37:07.893Z,16.46
2022-09-10T01:39:35.298Z,16.31
2022-09-10T01:42:01.946Z,16.47
2022-09-10T01:44:50.618Z,16.20
2022-09-10T01:47:41.658Z,16.08
2022-09-10T01:50:17.304Z,16.13
2022-09-10T01:52:53.867Z,16.12
2022-09-10T01:55:58.182Z,16.34
2022-09-10T01:58:45.569Z,16.50
2022-09-10T02:01:49.180Z,16.42
2022-09-10T02:04:19.254Z,16.39
2022-09-10T02:06:50.004Z,16.26
2022-09-10T02:09:19.062Z,16.21
2022-09-10T02:11:51.885Z,16.03
2022-09-10T02:14:55.141Z,15.87
2022-09-10T02:17:32.171Z,16.10
2022-09-10T02:20:04.482Z,16.04
2022-09-10T02:22:33.497Z,16.19
2022-09-10T02:25:00.030Z,16.13
2022-09-10T02:27:27.002Z,16.07
2022-09-10T02:29:55.328Z,16.10
2022-09-10T02:32:22.336Z,16.21
2022-09-10T02:34:51.323Z,16.13
2022-09-10T02:37:20.226Z,16.19
2022-09-10T02:39:46.900Z,16.09
2022-09-10T02:42:16.925Z,15.95
2022-09-10T02:44:46.172Z,15.85
2022-09-10T02:47:12.716Z,15.99
2022-09-10T02:49:39.269Z,15.87
2022-09-10T02:52:06.835Z,15.59
2022-09-10T02:54:35.402Z,15.71
2022-09-10T02:57:01.973Z,15.67
2022-09-10T02:59:29.124Z,15.73
2022-09-10T03:01:57.162Z,15.76
2022-09-10T03:04:23.786Z,15.78
2022-09-10T03:06:50.469Z,15.80
2022-09-10T03:09:17.244Z,15.75
2022-09-10T03:11:43.819Z,15.72
2022-09-10T03:14:10.891Z,15.74
2022-09-10T03:16:37.706Z,15.61
2022-09-10T03:19:06.241Z,15.70
2022-09-10T03:21:34.327Z,15.65
2022-09-10T03:24:01.148Z,15.78
2022-09-10T03:26:30.411Z,15.66
2022-09-10T03:28:57.396Z,16.00
2022-09-10T03:31:27.231Z,16.06
2022-09-10T03:33:54.024Z,15.79
2022-09-10T03:36:22.714Z,15.99
2022-09-10T03:38:50.069Z,15.90
2022-09-10T03:41:17.398Z,15.54
2022-09-10T03:43:44.810Z,15.74
2022-09-10T03:46:12.117Z,15.93
2022-09-10T03:48:43.510Z,15.84
2022-09-10T03:51:10.916Z,15.94
2022-09-10T03:53:38.649Z,15.83
2022-09-10T03:56:06.845Z,15.85
2022-09-10T03:58:35.769Z,15.78
2022-09-10T04:01:03.396Z,15.84
2022-09-10T04:03:32.102Z,15.81
2022-09-10T04:05:58.704Z,15.99
2022-09-10T04:08:25.288Z,16.03
2022-09-10T04:10:54.596Z,16.16
2022-09-10T04:13:23.051Z,16.39
2022-09-10T04:15:49.669Z,16.36
2022-09-10T04:18:16.323Z,16.37
2022-09-10T04:20:46.990Z,15.92
2022-09-10T04:23:16.189Z,16.00
2022-09-10T04:25:43.412Z,16.24
2022-09-10T04:28:11.340Z,16.11
2022-09-10T04:30:40.155Z,16.06
2022-09-10T04:33:07.732Z,16.13
2022-09-10T04:35:34.507Z,15.99
2022-09-10T04:38:03.990Z,16.08
2022-09-10T04:40:30.603Z,16.11
2022-09-10T04:42:57.144Z,16.09
2022-09-10T04:45:25.078Z,15.88
2022-09-10T04:47:54.196Z,16.07
2022-09-10T04:50:21.880Z,16.15
2022-09-10T04:53:11.322Z,16.15
2022-09-10T04:55:40.215Z,16.23
2022-09-10T04:58:07.420Z,16.37
2022-09-10T05:00:34.441Z,16.35
2022-09-10T05:03:01.029Z,16.38
2022-09-10T05:05:28.680Z,16.38
2022-09-10T05:07:55.600Z,16.54
2022-09-10T05:10:23.484Z,16.46
2022-09-10T05:12:50.757Z,16.52
2022-09-10T05:15:17.814Z,16.63
2022-09-10T05:17:47.983Z,16.69
2022-09-10T05:20:15.257Z,16.58
2022-09-10T05:22:49.006Z,16.60
2022-09-10T05:25:15.784Z,16.48
2022-09-10T05:27:42.935Z,16.56
2022-09-10T05:30:14.159Z,16.61
2022-09-10T05:32:40.888Z,16.74
2022-09-10T05:35:08.706Z,16.54
2022-09-10T05:37:38.657Z,16.53
2022-09-10T05:40:07.623Z,16.65
2022-09-10T05:42:34.303Z,16.40
2022-09-10T05:45:00.959Z,16.28
2022-09-10T05:47:28.223Z,16.24
2022-09-10T05:49:56.271Z,16.27
2022-09-10T05:52:24.325Z,16.28
2022-09-10T05:54:51.783Z,16.28
2022-09-10T05:57:18.321Z,16.37
2022-09-10T05:59:46.161Z,16.13
2022-09-10T06:02:21.752Z,15.98
2022-09-10T06:04:50.458Z,16.23
2022-09-10T06:07:17.370Z,16.18
2022-09-10T06:09:44.033Z,16.16
2022-09-10T06:12:35.997Z,15.96
2022-09-10T06:15:03.643Z,16.05
2022-09-10T06:17:30.415Z,15.85
2022-09-10T06:19:57.919Z,16.09
2022-09-10T06:22:24.531Z,16.20
2022-09-10T06:24:53.717Z,15.98
2022-09-10T06:27:23.216Z,16.13
2022-09-10T06:29:51.264Z,16.18
2022-09-10T06:32:17.879Z,15.94
2022-09-10T06:34:46.018Z,15.98
2022-09-10T06:37:13.233Z,15.90
2022-09-10T06:39:40.113Z,15.77
2022-09-10T06:42:07.366Z,15.78
2022-09-10T06:45:03.108Z,15.65
2022-09-10T06:48:34.775Z,15.43
2022-09-10T06:50:57.055Z,15.37
2022-09-10T06:53:29.387Z,15.71
2022-09-10T06:55:56.693Z,15.77
2022-09-10T06:58:24.806Z,15.78
2022-09-10T07:00:52.103Z,15.49
2022-09-10T07:03:21.704Z,15.39
2022-09-10T07:05:50.656Z,15.51
2022-09-10T07:08:17.660Z,15.64
2022-09-10T07:10:47.979Z,15.46
2022-09-10T07:13:14.676Z,15.76
2022-09-10T07:15:49.406Z,15.81
2022-09-10T07:18:16.636Z,15.81
2022-09-10T07:20:45.340Z,15.95
2022-09-10T07:23:18.275Z,15.66
2022-09-10T07:25:47.376Z,15.84
2022-09-10T07:28:43.902Z,15.71
2022-09-10T07:31:18.678Z,15.74
2022-09-10T07:33:47.462Z,16.06
2022-09-10T07:36:15.102Z,16.00
2022-09-10T07:38:42.252Z,16.13
2022-09-10T07:41:12.201Z,16.17
2022-09-10T07:43:40.508Z,16.17
2022-09-10T07:46:11.675Z,16.15
2022-09-10T07:48:39.651Z,16.07
2022-09-10T07:51:08.736Z,16.17
2022-09-10T07:53:35.759Z,16.24
2022-09-10T07:56:06.964Z,16.27
2022-09-10T07:58:37.236Z,16.29
2022-09-10T08:01:14.331Z,16.28
2022-09-10T08:03:41.647Z,16.47
2022-09-10T08:06:10.630Z,16.46
2022-09-10T08:08:40.085Z,16.43
2022-09-10T08:11:13.997Z,16.39
2022-09-10T08:13:47.194Z,16.51
2022-09-10T08:16:20.489Z,16.67
2022-09-10T08:18:48.724Z,16.84
2022-09-10T08:21:17.789Z,16.74
2022-09-10T08:23:59.348Z,16.78
2022-09-10T08:26:27.844Z,16.64
2022-09-10T08:28:58.091Z,16.76
2022-09-10T08:31:26.556Z,16.76
2022-09-10T08:34:04.437Z,17.04
2022-09-10T08:36:33.691Z,16.81
2022-09-10T08:39:05.125Z,16.90
2022-09-10T08:41:38.410Z,16.77
2022-09-10T08:44:09.822Z,16.91
2022-09-10T08:46:53.412Z,16.89
2022-09-10T08:49:34.588Z,16.57
2022-09-10T08:52:30.053Z,16.68
2022-09-10T08:55:19.101Z,16.94
2022-09-10T08:57:56.048Z,16.87
2022-09-10T09:00:36.721Z,16.67
2022-09-10T09:03:29.287Z,16.54
2022-09-10T09:06:01.558Z,16.63
2022-09-10T09:08:36.521Z,16.82
2022-09-10T09:11:49.825Z,16.87
2022-09-10T09:14:47.130Z,17.03
2022-09-10T09:17:35.305Z,17.25
2022-09-10T09:20:15.236Z,17.10
2022-09-10T09:22:49.597Z,17.00
2022-09-10T09:25:24.735Z,17.17
2022-09-10T09:27:57.736Z,17.07
2022-09-10T09:30:49.307Z,17.19
2022-09-10T09:33:22.574Z,17.36
2022-09-10T09:35:59.011Z,17.27
2022-09-10T09:38:37.477Z,17.19
2022-09-10T09:41:37.064Z,17.34
2022-09-10T09:44:26.767Z,17.22
2022-09-10T09:46:53.423Z,17.40
2022-09-10T09:49:20.136Z,17.16
2022-09-10T09:51:48.729Z,17.23
2022-09-10T09:54:56.773Z,17.46
2022-09-10T09:57:16.081Z,17.55
2022-09-10T09:59:43.540Z,17.44
2022-09-10T10:02:12.413Z,17.35
2022-09-10T10:04:42.438Z,17.42
2022-09-10T10:07:09.507Z,17.47
2022-09-10T10:09:42.944Z,17.63
2022-09-10T10:12:20.197Z,17.51
2022-09-10T10:14:46.963Z,17.48
2022-09-10T10:17:25.552Z,17.53
2022-09-10T10:20:00.818Z,17.45
2022-09-10T10:22:32.263Z,17.57
2022-09-10T10:25:01.188Z,17.37
2022-09-10T10:27:32.662Z,17.52
2022-09-10T10:30:17.350Z,17.94
2022-09-10T10:32:57.987Z,18.10
2022-09-10T10:35:47.479Z,18.32
2022-09-10T10:38:13.959Z,18.41
2022-09-10T10:41:29.708Z,18.27
2022-09-10T10:44:17.644Z,18.12
2022-09-10T10:47:19.911Z,17.85
2022-09-10T10:49:54.588Z,17.58
2022-09-10T10:52:54.433Z,17.95
2022-09-10T10:55:27.463Z,17.80
2022-09-10T10:58:23.592Z,17.82
2022-09-10T11:01:23.640Z,17.93
2022-09-10T11:04:18.427Z,17.79
2022-09-10T11:06:49.137Z,17.92
2022-09-10T11:09:26.926Z,17.87
2022-09-10T11:11:53.451Z,18.11
2022-09-10T11:14:28.294Z,18.14
2022-09-10T11:17:14.896Z,18.21
2022-09-10T11:20:27.329Z,18.30
2022-09-10T11:22:59.205Z,18.39
2022-09-10T11:25:30.675Z,18.17
2022-09-10T11:28:06.888Z,17.97
2022-09-10T11:30:34.884Z,18.02
2022-09-10T11:33:11.260Z,18.10
2022-09-10T11:35:45.540Z,18.10
2022-09-10T11:38:37.852Z,18.11
2022-09-10T11:41:07.113Z,18.28
2022-09-10T11:44:12.699Z,18.23
2022-09-10T11:46:50.142Z,18.03
2022-09-10T11:49:30.999Z,17.81
2022-09-10T11:51:57.550Z,18.03
2022-09-10T11:54:30.877Z,17.96
2022-09-10T11:57:33.916Z,17.84
2022-09-10T12:00:07.215Z,17.92
2022-09-10T12:02:46.957Z,17.97
2022-09-10T12:05:39.451Z,18.09
2022-09-10T12:08:17.613Z,18.15
2022-09-10T12:11:06.190Z,18.03
2022-09-10T12:13:39.281Z,17.98
2022-09-10T12:16:20.340Z,18.10
2022-09-10T12:18:51.246Z,18.04
2022-09-10T12:21:39.640Z,17.97
2022-09-10T12:24:50.229Z,17.96
2022-09-10T12:27:19.186Z,18.01
2022-09-10T12:29:45.853Z,17.63
2022-09-10T12:32:25.828Z,17.38
2022-09-10T12:35:34.572Z,17.42
2022-09-10T12:38:41.694Z,17.32
2022-09-10T12:41:34.137Z,17.46
2022-09-10T12:44:24.848Z,17.51
2022-09-10T12:47:13.461Z,17.50
2022-09-10T12:50:03.065Z,17.43
2022-09-10T12:52:47.211Z,17.42
2022-09-10T12:55:51.131Z,17.41
2022-09-10T12:58:28.162Z,17.27
2022-09-10T13:00:54.668Z,17.18
2022-09-10T13:03:23.962Z,17.16
2022-09-10T13:05:54.171Z,17.15
2022-09-10T13:08:34.106Z,17.29
2022-09-10T13:11:01.282Z,17.36
2022-09-10T13:13:39.704Z,17.45
2022-09-10T13:16:13.889Z,17.62
2022-09-10T13:18:41.875Z,17.59
2022-09-10T13:21:23.752Z,17.46
2022-09-10T13:23:54.172Z,17.55
2022-09-10T13:26:33.982Z,17.59
2022-09-10T13:29:09.131Z,17.67
2022-09-10T13:31:42.107Z,17.57
2022-09-10T13:34:40.751Z,17.47
2022-09-10T13:37:47.556Z,17.64
2022-09-10T13:40:21.862Z,17.74
2022-09-10T13:43:10.061Z,17.87
2022-09-10T13:45:41.599Z,17.78
2022-09-10T13:48:37.943Z,17.89
2022-09-10T13:51:17.056Z,17.88
2022-09-10T13:53:46.932Z,17.94
2022-09-10T13:56:19.711Z,18.02
2022-09-10T13:59:00.499Z,18.11
2022-09-10T14:01:53.737Z,18.13
2022-09-10T14:04:31.761Z,18.25
2022-09-10T14:07:05.456Z,18.23
2022-09-10T14:09:33.293Z,18.23
2022-09-10T14:12:04.589Z,18.16
2022-09-10T14:14:37.264Z,18.26
2022-09-10T14:17:34.396Z,18.14
2022-09-10T14:20:17.924Z,18.19
2022-09-10T14:22:45.056Z,18.26
2022-09-10T14:25:31.122Z,18.33
2022-09-10T14:28:15.694Z,18.07
2022-09-10T14:30:47.813Z,18.11
2022-09-10T14:33:31.385Z,18.10
2022-09-10T14:36:12.320Z,18.18
2022-09-10T14:38:41.095Z,18.10
2022-09-10T14:41:24.592Z,18.12
2022-09-10T14:44:22.845Z,18.05
2022-09-10T14:46:57.448Z,17.82
2022-09-10T14:49:28.386Z,17.66
2022-09-10T14:51:57.125Z,17.55
2022-09-10T14:54:24.544Z,17.52
2022-09-10T14:56:51.873Z,17.51
2022-09-10T14:59:31.541Z,17.32
2022-09-10T15:02:00.607Z,17.54
2022-09-10T15:04:29.927Z,17.69
2022-09-10T15:06:58.837Z,17.44
2022-09-10T15:09:27.708Z,17.42
2022-09-10T15:12:05.770Z,17.47
2022-09-10T15:14:33.642Z,17.69
2022-09-10T15:17:00.283Z,17.58
2022-09-10T15:19:28.028Z,17.74
2022-09-10T15:21:54.699Z,17.83
2022-09-10T15:24:23.339Z,17.83
2022-09-10T15:26:53.536Z,17.82
2022-09-10T15:29:20.224Z,18.21
2022-09-10T15:31:47.021Z,17.99
2022-09-10T15:34:14.278Z,18.31
2022-09-10T15:36:41.504Z,18.37
2022-09-10T15:39:11.827Z,18.27
2022-09-10T15:41:43.544Z,18.23
2022-09-10T15:44:10.855Z,18.19
2022-09-10T15:46:41.351Z,18.41
2022-09-10T15:49:08.263Z,18.41
2022-09-10T15:51:34.792Z,18.34
2022-09-10T15:54:04.888Z,18.46
2022-09-10T15:56:32.589Z,18.38
2022-09-10T15:58:59.588Z,18.63
2022-09-10T16:01:28.745Z,18.31
2022-09-10T16:03:57.534Z,18.16
2022-09-10T16:06:27.295Z,18.35
2022-09-10T16:09:01.864Z,18.20
2022-09-10T16:11:32.775Z,17.86
2022-09-10T16:14:04.739Z,18.01
2022-09-10T16:16:32.417Z,18.08
2022-09-10T16:19:00.383Z,17.93
2022-09-10T16:21:32.115Z,18.01
2022-09-10T16:24:00.566Z,17.96
2022-09-10T16:26:34.497Z,17.81
2022-09-10T16:29:03.746Z,17.69
2022-09-10T16:31:32.700Z,17.80
2022-09-10T16:34:05.200Z,17.80
2022-09-10T16:36:34.155Z,17.63
2022-09-10T16:39:01.791Z,17.56
2022-09-10T16:41:28.908Z,17.54
2022-09-10T16:43:58.258Z,17.57
2022-09-10T16:46:26.224Z,17.52
2022-09-10T16:48:54.295Z,17.54
2022-09-10T16:51:25.860Z,17.53
2022-09-10T16:54:02.375Z,17.54
2022-09-10T16:56:33.588Z,17.40
2022-09-10T16:59:00.207Z,17.52
2022-09-10T17:01:26.819Z,17.51
2022-09-10T17:03:53.907Z,17.46
2022-09-10T17:06:27.298Z,17.52
2022-09-10T17:08:57.082Z,17.30
2022-09-10T17:11:28.491Z,17.22
2022-09-10T17:13:56.963Z,17.22
2022-09-10T17:16:32.520Z,17.23
2022-09-10T17:19:07.033Z,17.17
2022-09-10T17:21:34.987Z,17.05
2022-09-10T17:24:02.839Z,17.16
2022-09-10T17:26:31.373Z,16.95
2022-09-10T17:29:08.551Z,17.09
2022-09-10T17:31:37.227Z,17.11
2022-09-10T17:34:06.608Z,17.08
2022-09-10T17:36:34.663Z,17.19
2022-09-10T17:39:03.644Z,17.18
2022-09-10T17:41:31.067Z,16.93
2022-09-10T17:44:01.541Z,17.03
2022-09-10T17:46:31.026Z,16.92
2022-09-10T17:49:00.016Z,16.91
2022-09-10T17:51:29.561Z,16.84
2022-09-10T17:53:57.123Z,16.71
2022-09-10T17:56:26.112Z,16.62
2022-09-10T17:59:03.833Z,16.47
2022-09-10T18:01:41.644Z,16.40
2022-09-10T18:04:12.514Z,16.38
2022-09-10T18:06:39.771Z,16.55
2022-09-10T18:09:07.794Z,16.58
2022-09-10T18:11:40.031Z,16.34
2022-09-10T18:14:07.169Z,16.55
2022-09-10T18:16:36.585Z,16.55
2022-09-10T18:19:14.941Z,16.59
2022-09-10T18:21:44.978Z,16.66
2022-09-10T18:24:17.122Z,16.69
2022-09-10T18:26:46.407Z,16.72
2022-09-10T18:29:21.554Z,16.88
2022-09-10T18:31:51.020Z,16.85
2022-09-10T18:34:23.240Z,16.91
2022-09-10T18:36:54.161Z,16.72
2022-09-10T18:39:21.931Z,16.61
2022-09-10T18:41:48.493Z,16.59
2022-09-10T18:44:18.044Z,16.55
2022-09-10T18:46:46.831Z,16.57
2022-09-10T18:49:19.097Z,16.64
2022-09-10T18:51:47.677Z,16.52
2022-09-10T18:54:16.079Z,16.46
2022-09-10T18:56:44.941Z,16.41
2022-09-10T18:59:15.109Z,16.49
2022-09-10T19:01:43.470Z,16.23
2022-09-10T19:04:13.121Z,16.19
2022-09-10T19:06:43.147Z,16.15
2022-09-10T19:09:11.876Z,16.29
2022-09-10T19:11:43.687Z,16.48
2022-09-10T19:14:19.135Z,16.50
2022-09-10T19:16:47.271Z,16.54
2022-09-10T19:19:18.442Z,16.66
2022-09-10T19:21:46.035Z,16.72
2022-09-10T19:24:12.900Z,16.36
2022-09-10T19:26:39.509Z,16.44
2022-09-10T19:29:06.868Z,16.31
2022-09-10T19:31:35.076Z,16.29
2022-09-10T19:34:04.500Z,16.19
2022-09-10T19:36:34.573Z,16.13
2022-09-10T19:39:04.766Z,16.43
2022-09-10T19:41:31.593Z,16.30
2022-09-10T19:43:58.114Z,16.28
2022-09-10T19:46:28.303Z,16.17
2022-09-10T19:48:58.298Z,16.37
2022-09-10T19:51:29.167Z,16.20
2022-09-10T19:53:56.203Z,16.02
2022-09-10T19:56:28.824Z,16.04
2022-09-10T19:58:56.170Z,16.05
2022-09-10T20:01:26.232Z,16.01
2022-09-10T20:03:54.319Z,15.83
2022-09-10T20:06:25.317Z,15.69
2022-09-10T20:08:52.562Z,15.52
2022-09-10T20:11:21.868Z,15.50
2022-09-10T20:13:50.012Z,15.73
2022-09-10T20:16:17.177Z,15.64
2022-09-10T20:18:43.773Z,15.72
2022-09-10T20:21:25.521Z,15.70
2022-09-10T20:23:55.814Z,15.49
2022-09-10T20:26:25.570Z,15.49
2022-09-10T20:28:55.560Z,15.45
2022-09-10T20:31:23.497Z,15.60
2022-09-10T20:33:58.133Z,15.54
2022-09-10T20:36:26.070Z,15.46
2022-09-10T20:38:53.600Z,15.43
2022-09-10T20:41:20.768Z,15.41
2022-09-10T20:43:51.852Z,15.47
2022-09-10T20:46:20.560Z,15.60
2022-09-10T20:48:49.419Z,15.65
2022-09-10T20:51:17.945Z,15.88
2022-09-10T20:53:44.883Z,16.14
2022-09-10T20:56:14.091Z,16.05
2022-09-10T20:58:41.489Z,16.05
2022-09-10T21:01:20.272Z,15.98
2022-09-10T21:03:48.726Z,15.99
2022-09-10T21:06:19.255Z,15.91
2022-09-10T21:08:47.586Z,15.83
2022-09-10T21:11:17.829Z,15.85
2022-09-10T21:13:53.300Z,15.73
2022-09-10T21:16:23.100Z,15.90
2022-09-10T21:18:54.733Z,15.76
2022-09-10T21:21:25.316Z,15.78
2022-09-10T21:23:54.204Z,15.64
2022-09-10T21:26:23.276Z,15.76
2022-09-10T21:28:52.855Z,15.77
2022-09-10T21:31:19.487Z,15.60
2022-09-10T21:33:46.088Z,15.57
2022-09-10T21:36:15.612Z,15.36
2022-09-10T21:38:46.324Z,15.24
2022-09-10T21:41:15.920Z,15.30
2022-09-10T21:43:44.729Z,15.29
2022-09-10T21:46:13.408Z,15.18
2022-09-10T21:48:42.321Z,15.27
2022-09-10T21:51:14.495Z,15.17
2022-09-10T21:53:42.722Z,15.06
2022-09-10T21:56:12.540Z,14.88
2022-09-10T21:58:39.908Z,15.08
2022-09-10T22:01:14.288Z,15.26
2022-09-10T22:03:41.044Z,15.08
2022-09-10T22:06:10.603Z,15.12
2022-09-10T22:08:38.896Z,15.06
2022-09-10T22:11:16.164Z,15.12
2022-09-10T22:13:43.780Z,15.14
2022-09-10T22:16:12.461Z,15.33
2022-09-10T22:18:39.849Z,15.48
2022-09-10T22:21:06.822Z,15.57
2022-09-10T22:23:38.610Z,15.48
2022-09-10T22:26:10.965Z,15.43
2022-09-10T22:28:38.342Z,15.49
2022-09-10T22:31:17.138Z,15.27
2022-09-10T22:33:45.950Z,15.28
2022-09-10T22:36:21.024Z,15.23
2022-09-10T22:39:01.805Z,15.28
2022-09-10T22:41:31.465Z,15.17
2022-09-10T22:43:58.199Z,15.19
2022-09-10T22:46:24.885Z,15.08
2022-09-10T22:48:51.519Z,15.13
2022-09-10T22:51:23.675Z,15.18
2022-09-10T22:53:51.980Z,15.36
2022-09-10T22:56:22.085Z,15.05
2022-09-10T22:58:52.732Z,15.28
2022-09-10T23:01:22.661Z,15.13
2022-09-10T23:03:49.813Z,15.22
2022-09-10T23:06:24.460Z,15.23
2022-09-10T23:08:54.044Z,15.39
2022-09-10T23:11:24.602Z,15.05
2022-09-10T23:13:54.192Z,14.77
2022-09-10T23:16:22.437Z,14.90
2022-09-10T23:18:54.716Z,14.88
2022-09-10T23:21:23.907Z,14.88
2022-09-10T23:23:52.760Z,14.74
2022-09-10T23:26:19.843Z,14.75
2022-09-10T23:28:46.635Z,14.97
2022-09-10T23:31:17.377Z,14.81
2022-09-10T23:33:46.643Z,14.92
2022-09-10T23:36:14.328Z,15.11
2022-09-10T23:38:42.546Z,15.01
2022-09-10T23:41:10.954Z,15.04
2022-09-10T23:43:38.174Z,15.02
2022-09-10T23:46:05.498Z,15.01
2022-09-10T23:48:32.130Z,14.94
2022-09-10T23:50:58.911Z,15.07
2022-09-10T23:53:25.412Z,15.21
2022-09-10T23:55:52.258Z,15.15
2022-09-10T23:58:19.776Z,14.88
